Stroby Egede, Denmark
Current Conditions -  °F | °C
As of 7:20 PM on Monday 22 Dec 2014 (Local Time) from EKRK Reporting Station
Broken Clouds Broken Clouds  
Wind Chill: 38°   Ceiling: 2300
Heat Index: 45°   Visibility: 6mi
Dew Point: 43°   Wind: 15mph
Humidity: 93%   Direction: 260°W
Pressure: 29.53"   Gusts: NA
Location:  55.41°N, 12.25°E
Report Text: EKRK 221820Z AUTO 26013KT 9999NDV FEW014/// SCT019///BKN023/// BKN050/// 07/06 Q1000
Loading
Personal Weather Stations






























Interactive Weather Map New forecast layout! Learn more

10-Day Weather Forecast

Advertisements
Track Severe Weather on mobile